Time;durP1;ratioP1;P1;durP2;ratioP2;P2;SDS_P1;SDS_P2;PMS_P1;PMS_P2;Temp;Humidity;BMP_temperature;BMP_pressure;BME280_temperature;BME280_humidity;BME280_pressure;Samples;Min_cycle;Max_cycle;Signal;HPM_P1;HPM_P2
2022/02/11 00:02:19;;;;;;;52.78;27.75;;;;;;;3.67;80.46;100985.56;5055988;28;20115;-72
2022/02/11 00:07:27;;;;;;;51.83;29.15;;;;;;;3.73;80.78;101006.47;5070402;28;20031;-72
2022/02/11 00:09:53;;;;;;;55.47;30.30;;;;;;;3.68;80.59;100993.44;5070487;28;20475;-72
2022/02/11 00:12:19;;;;;;;55.33;29.50;;;;;;;3.68;80.54;100987.28;5070185;28;20046;-72
2022/02/11 00:14:58;;;;;;;55.03;29.27;;;;;;;3.63;80.48;100989.28;5070264;28;20028;-72
2022/02/11 00:17:24;;;;;;;50.53;28.35;;;;;;;3.66;79.88;100983.84;5068593;28;20031;-72
2022/02/11 00:19:49;;;;;;;51.65;29.38;;;;;;;3.62;79.73;100985.81;5068646;28;20052;-72
2022/02/11 00:22:15;;;;;;;54.47;28.60;;;;;;;3.60;79.79;100976.19;5069208;28;20491;-70
2022/02/11 00:24:41;;;;;;;53.72;28.80;;;;;;;3.48;79.74;100974.16;5066982;28;20468;-69
2022/02/11 00:32:46;;;;;;;55.42;29.70;;;;;;;3.41;79.77;100993.91;5068812;28;20027;-69
2022/02/11 00:35:28;;;;;;;52.92;29.15;;;;;;;3.34;80.13;100989.84;5068356;28;20032;-69
2022/02/11 00:37:54;;;;;;;56.85;28.38;;;;;;;3.29;80.72;100991.88;5067196;28;20033;-69
2022/02/11 01:04:13;;;;;;;53.92;30.08;;;;;;;3.10;84.06;101001.59;5064805;28;20039;-69
2022/02/11 01:06:39;;;;;;;52.20;29.48;;;;;;;3.06;84.63;100995.56;5066873;28;20591;-69
2022/02/11 01:09:06;;;;;;;58.58;29.40;;;;;;;3.10;84.82;100993.66;5067449;28;20110;-69
2022/02/11 01:14:09;;;;;;;52.47;28.55;;;;;;;2.97;85.00;100972.16;5067352;28;20072;-69
2022/02/11 01:16:43;;;;;;;55.83;28.80;;;;;;;3.00;84.93;100979.13;5067976;28;20070;-69
2022/02/11 01:21:46;;;;;;;51.15;29.30;;;;;;;3.02;84.71;100993.13;5067748;28;20028;-69
2022/02/11 01:27:22;;;;;;;50.80;27.33;;;;;;;3.01;84.69;100981.69;5068326;28;20028;-69
2022/02/11 01:32:25;;;;;;;49.08;27.52;;;;;;;3.01;85.20;100991.44;5067823;28;20029;-68
2022/02/11 01:37:23;;;;;;;52.92;28.98;;;;;;;2.92;84.87;100983.91;5067278;28;20472;-69
2022/02/11 02:18:34;;;;;;;57.03;30.13;;;;;;;2.74;87.14;100971.50;5070748;28;20541;-69
2022/02/11 02:22:57;;;;;;;61.47;31.80;;;;;;;2.82;87.10;100977.31;5068633;28;20039;-69
2022/02/11 02:25:33;;;;;;;56.08;30.25;;;;;;;2.83;87.03;100976.41;5066289;28;20021;-69
2022/02/11 03:49:43;;;;;;;49.50;28.52;;;;;;;2.74;92.51;100937.09;5069578;28;20086;-73
2022/02/11 04:20:39;;;;;;;51.05;26.73;;;;;;;3.16;91.63;100965.06;5070466;28;20046;-73
2022/02/11 05:00:00;;;;;;;44.70;24.10;;;;;;;3.25;92.87;100942.56;5069163;28;20044;-73
2022/02/11 05:02:30;;;;;;;41.65;22.10;;;;;;;3.34;92.74;100958.03;5070623;28;20024;-73
2022/02/11 05:04:57;;;;;;;42.80;23.63;;;;;;;3.29;92.63;100947.63;5069952;28;20029;-73
2022/02/11 05:07:22;;;;;;;42.45;22.83;;;;;;;3.33;92.40;100951.88;5069338;28;20024;-73
2022/02/11 05:09:47;;;;;;;41.28;23.15;;;;;;;3.25;92.08;100943.44;5069743;28;20051;-72
2022/02/11 05:12:13;;;;;;;45.58;23.50;;;;;;;3.30;92.83;100961.75;5068787;28;20042;-72
2022/02/11 05:14:39;;;;;;;41.90;22.88;;;;;;;3.28;92.92;100953.00;5068825;28;20043;-73
2022/02/11 05:17:04;;;;;;;46.35;24.70;;;;;;;3.29;92.89;100955.59;5068704;28;20094;-72
2022/02/11 05:19:29;;;;;;;48.25;24.08;;;;;;;3.28;92.56;100953.00;5068572;28;20056;-72
2022/02/11 05:21:55;;;;;;;47.88;23.75;;;;;;;3.25;92.29;100954.03;5068773;28;20029;-73
2022/02/11 05:24:21;;;;;;;47.65;23.63;;;;;;;3.22;91.97;100953.34;5066944;28;20027;-72
2022/02/11 05:26:47;;;;;;;52.33;25.73;;;;;;;3.18;92.15;100949.97;5063927;28;20451;-73
2022/02/11 05:29:13;;;;;;;56.38;27.25;;;;;;;3.06;92.39;100926.69;5067157;28;20030;-73
2022/02/11 05:31:38;;;;;;;48.83;24.90;;;;;;;3.16;92.70;100958.91;5068225;28;20037;-73
2022/02/11 05:34:04;;;;;;;48.97;25.63;;;;;;;3.06;92.49;100941.75;5066759;28;20036;-73
2022/02/11 05:36:29;;;;;;;45.65;25.08;;;;;;;3.02;92.29;100946.31;5067821;28;20051;-72
2022/02/11 05:38:55;;;;;;;46.05;26.20;;;;;;;3.01;91.91;100944.59;5067103;28;20060;-73
2022/02/11 05:41:21;;;;;;;49.10;25.02;;;;;;;2.87;92.32;100930.28;5067334;28;20052;-72
2022/02/11 05:43:47;;;;;;;48.88;24.42;;;;;;;2.91;92.44;100937.16;5066549;28;20062;-73
2022/02/11 05:46:13;;;;;;;42.45;23.92;;;;;;;2.89;92.46;100939.00;5068201;28;20082;-72
2022/02/11 05:48:43;;;;;;;49.25;25.90;;;;;;;2.85;92.71;100934.78;5068940;28;20024;-73
2022/02/11 05:51:09;;;;;;;45.33;23.95;;;;;;;2.87;92.92;100939.06;5068458;28;20091;-73
2022/02/11 05:53:34;;;;;;;43.88;25.05;;;;;;;2.77;93.31;100929.00;5070647;28;20039;-73
2022/02/11 05:56:00;;;;;;;49.60;23.15;;;;;;;2.81;93.53;100939.38;5071706;28;20032;-73
2022/02/11 05:58:25;;;;;;;46.33;24.17;;;;;;;2.82;94.25;100933.16;5070395;28;20020;-73
2022/02/11 06:00:51;;;;;;;39.85;22.95;;;;;;;2.79;94.30;100925.34;5071835;28;20024;-72
2022/02/11 06:03:16;;;;;;;44.88;24.20;;;;;;;2.80;94.50;100939.44;5072159;28;20052;-73
2022/02/11 06:05:42;;;;;;;45.08;24.83;;;;;;;2.75;94.47;100930.84;5071909;28;20031;-73
2022/02/11 06:08:07;;;;;;;42.28;24.20;;;;;;;2.77;95.16;100926.34;5072014;28;20049;-73
2022/02/11 06:10:33;;;;;;;45.45;24.60;;;;;;;2.83;95.21;100949.91;5071882;28;20020;-73
2022/02/11 06:12:58;;;;;;;42.10;23.27;;;;;;;2.84;95.93;100957.75;5070411;28;20028;-73
2022/02/11 06:15:24;;;;;;;44.72;24.20;;;;;;;2.83;95.77;100947.25;5071499;28;20044;-73
2022/02/11 06:17:49;;;;;;;44.67;23.85;;;;;;;2.81;96.14;100957.06;5070001;28;20049;-70
2022/02/11 06:20:15;;;;;;;48.53;24.50;;;;;;;2.88;96.87;100964.66;5069821;28;20109;-69
2022/02/11 06:22:43;;;;;;;40.95;22.35;;;;;;;2.91;96.99;100964.50;5067792;28;20372;-70
2022/02/11 06:25:09;;;;;;;40.25;22.65;;;;;;;2.92;97.71;100960.91;5069673;28;20028;-69
2022/02/11 06:27:37;;;;;;;39.50;21.17;;;;;;;2.89;98.35;100953.13;5066770;28;20024;-69
2022/02/11 06:30:03;;;;;;;42.50;22.60;;;;;;;2.86;98.55;100939.13;5066339;28;20085;-70
2022/02/11 06:32:29;;;;;;;38.05;21.70;;;;;;;3.04;98.33;100973.59;5069831;28;20028;-70
2022/02/11 06:34:57;;;;;;;41.03;23.23;;;;;;;3.07;98.49;100969.94;5068379;28;20399;-70
2022/02/11 06:37:22;;;;;;;42.35;20.42;;;;;;;3.04;98.47;100968.31;5067377;28;20100;-70
2022/02/11 06:39:48;;;;;;;37.40;20.92;;;;;;;3.14;98.33;100968.72;5069376;28;20036;-70
2022/02/11 06:42:13;;;;;;;39.28;22.58;;;;;;;3.13;98.83;100970.50;5069765;28;20016;-69
2022/02/11 06:44:39;;;;;;;39.00;20.92;;;;;;;3.17;98.71;100971.22;5069845;28;20052;-70
2022/02/11 06:47:04;;;;;;;40.05;21.90;;;;;;;3.25;98.65;100969.06;5069546;28;20047;-70
2022/02/11 06:49:31;;;;;;;42.38;23.17;;;;;;;3.30;98.58;100970.59;5068408;28;20032;-70
2022/02/11 06:51:57;;;;;;;39.45;22.15;;;;;;;3.30;98.65;100973.25;5070110;28;20017;-71
2022/02/11 06:54:22;;;;;;;41.72;21.73;;;;;;;3.40;98.47;100976.28;5069608;28;20032;-70
2022/02/11 06:56:48;;;;;;;45.08;22.70;;;;;;;3.46;97.97;100962.75;5068487;28;20189;-71
2022/02/11 06:59:13;;;;;;;36.13;21.90;;;;;;;3.60;98.25;100994.75;5070036;28;20031;-70
2022/02/11 07:01:39;;;;;;;38.75;24.50;;;;;;;3.59;98.08;100977.13;5069824;28;20138;-71
2022/02/11 07:04:04;;;;;;;43.53;23.05;;;;;;;3.66;98.07;100986.50;5070502;28;20119;-70
2022/02/11 07:06:30;;;;;;;46.13;23.98;;;;;;;3.67;98.19;100986.41;5070112;28;20037;-70
2022/02/11 07:08:55;;;;;;;46.10;23.63;;;;;;;3.79;97.61;100984.97;5070161;28;20029;-71
2022/02/11 07:11:21;;;;;;;40.75;23.83;;;;;;;3.88;97.53;100992.47;5069991;28;20024;-70
2022/02/11 07:13:47;;;;;;;42.67;22.75;;;;;;;3.90;96.90;100967.56;5068214;28;20035;-70
2022/02/11 07:16:15;;;;;;;47.92;24.05;;;;;;;3.88;96.98;100972.09;5070316;28;20028;-70
2022/02/11 07:18:41;;;;;;;41.05;23.92;;;;;;;4.07;96.48;100977.34;5069935;28;20048;-71
2022/02/11 07:21:07;;;;;;;43.15;22.73;;;;;;;4.12;96.75;100988.56;5070755;28;20123;-72
2022/02/11 07:23:32;;;;;;;33.30;21.08;;;;;;;4.17;96.83;100983.91;5070482;28;20020;-74
2022/02/11 07:25:58;;;;;;;46.95;24.38;;;;;;;4.22;96.84;100990.69;5070937;28;20035;-72
2022/02/11 07:28:24;;;;;;;38.53;22.35;;;;;;;4.18;96.69;100967.03;5070106;28;20516;-72
2022/02/11 07:30:51;;;;;;;36.58;20.25;;;;;;;4.40;96.60;100980.91;5070852;28;20035;-72
2022/02/11 07:33:17;;;;;;;35.05;19.10;;;;;;;4.40;96.27;100970.28;5070657;28;20134;-71
2022/02/11 07:35:42;;;;;;;34.50;20.02;;;;;;;4.53;96.60;100974.03;5070942;28;20484;-71
2022/02/11 07:38:08;;;;;;;35.63;18.52;;;;;;;4.62;96.01;100970.88;5070046;28;20467;-71
2022/02/11 07:40:33;;;;;;;35.42;19.75;;;;;;;4.69;96.07;100973.13;5070370;28;20456;-72
2022/02/11 07:42:59;;;;;;;38.40;18.75;;;;;;;4.71;96.22;100968.59;5067894;28;20051;-72
2022/02/11 07:45:27;;;;;;;35.33;18.92;;;;;;;4.84;96.05;100967.94;5067355;28;20415;-71
2022/02/11 07:47:53;;;;;;;32.00;18.75;;;;;;;5.01;95.33;100979.38;5069706;28;20119;-71
2022/02/11 07:50:19;;;;;;;38.28;20.85;;;;;;;5.19;94.40;100978.34;5070027;28;20107;-71
2022/02/11 07:52:44;;;;;;;29.77;17.35;;;;;;;5.42;93.35;100974.41;5069872;28;20535;-71
2022/02/11 07:55:10;;;;;;;35.70;19.20;;;;;;;5.52;92.93;100978.28;5069795;28;20024;-71
2022/02/11 07:57:35;;;;;;;31.23;18.75;;;;;;;5.59;92.91;100977.84;5069654;28;20024;-71
2022/02/11 08:00:04;;;;;;;28.00;16.95;;;;;;;5.66;92.72;100975.66;5068483;28;20040;-71
2022/02/11 08:02:31;;;;;;;29.92;18.42;;;;;;;5.73;91.66;100964.59;5069581;28;20067;-70
2022/02/11 08:04:57;;;;;;;33.88;18.17;;;;;;;5.96;90.54;100969.47;5069706;28;20036;-71
2022/02/11 08:07:22;;;;;;;34.30;17.80;;;;;;;6.05;90.57;100962.75;5068907;28;20039;-70
2022/02/11 08:09:48;;;;;;;31.70;17.67;;;;;;;6.08;89.34;100950.13;5069221;28;20036;-71
2022/02/11 08:12:14;;;;;;;28.95;17.70;;;;;;;6.28;88.37;100957.78;5069242;28;20020;-71
2022/02/11 08:14:39;;;;;;;27.00;16.67;;;;;;;6.37;88.08;100957.22;5068746;28;20032;-71
2022/02/11 08:17:05;;;;;;;32.33;16.70;;;;;;;6.57;86.68;100962.19;5068534;28;20165;-70
2022/02/11 08:19:30;;;;;;;29.42;15.95;;;;;;;6.67;86.45;100960.66;5069240;28;20562;-71
2022/02/11 08:21:56;;;;;;;28.48;14.73;;;;;;;6.66;86.47;100942.09;5068653;28;20077;-71
2022/02/11 08:24:21;;;;;;;32.33;16.92;;;;;;;6.78;86.52;100952.84;5068903;28;20032;-70
2022/02/11 08:26:46;;;;;;;29.02;17.10;;;;;;;6.85;86.11;100951.56;5069071;28;20040;-70
2022/02/11 08:29:14;;;;;;;30.48;17.02;;;;;;;6.86;85.52;100934.59;5069279;28;20029;-71
2022/02/11 08:31:42;;;;;;;26.70;15.07;;;;;;;7.02;84.86;100954.97;5069177;28;20082;-71
2022/02/11 08:34:07;;;;;;;30.95;17.55;;;;;;;7.11;84.94;100949.03;5066631;28;20361;-70
2022/02/11 08:36:33;;;;;;;28.40;15.90;;;;;;;7.23;84.84;100956.25;5068542;28;20031;-70
2022/02/11 08:38:58;;;;;;;28.20;16.45;;;;;;;7.29;84.31;100942.53;5069125;28;20028;-70
2022/02/11 08:41:24;;;;;;;30.35;15.75;;;;;;;7.37;83.48;100941.06;5068397;28;20032;-70
2022/02/11 08:43:49;;;;;;;26.60;15.00;;;;;;;7.50;83.17;100943.78;5068919;28;20115;-70
2022/02/11 08:46:15;;;;;;;24.10;14.45;;;;;;;7.66;81.86;100940.03;5068979;28;20387;-68
2022/02/11 08:48:41;;;;;;;27.45;15.18;;;;;;;7.77;81.58;100947.34;5068735;28;20424;-67
2022/02/11 08:51:07;;;;;;;28.13;14.35;;;;;;;7.92;79.40;100938.28;5068502;28;20805;-67
2022/02/11 08:53:34;;;;;;;27.50;14.50;;;;;;;7.96;79.60;100935.31;5068352;28;20071;-70
2022/02/11 08:56:00;;;;;;;26.17;14.27;;;;;;;8.10;79.18;100934.38;5068643;28;20028;-70
2022/02/11 08:58:25;;;;;;;21.38;13.40;;;;;;;8.17;78.30;100922.31;5068044;28;20530;-70
2022/02/11 09:00:51;;;;;;;25.80;14.35;;;;;;;8.26;77.47;100916.38;5068610;28;20071;-70
2022/02/11 09:03:16;;;;;;;25.92;13.90;;;;;;;8.40;76.97;100916.28;5068730;28;20031;-70
2022/02/11 09:05:42;;;;;;;29.55;13.98;;;;;;;8.57;76.41;100932.00;5068225;28;20040;-70
2022/02/11 09:08:26;;;;;;;24.75;13.50;;;;;;;8.63;75.03;100916.38;5068216;28;20032;-70
2022/02/11 09:10:52;;;;;;;23.95;13.75;;;;;;;8.79;74.65;100909.00;5067309;28;20028;-69
2022/02/11 09:13:17;;;;;;;25.73;13.25;;;;;;;8.86;74.08;100912.06;5068172;28;20501;-70
2022/02/11 09:15:45;;;;;;;23.73;13.05;;;;;;;8.94;74.86;100917.75;5067813;28;20028;-70
2022/02/11 09:18:12;;;;;;;21.83;14.00;;;;;;;9.00;74.58;100920.81;5067920;28;20537;-67
2022/02/11 09:20:38;;;;;;;27.95;14.43;;;;;;;9.23;72.90;100906.63;5068029;28;20127;-67
2022/02/11 09:23:03;;;;;;;35.15;14.48;;;;;;;9.36;72.17;100909.28;5068063;28;20111;-67
2022/02/11 09:25:29;;;;;;;32.05;15.90;;;;;;;9.37;72.02;100900.28;5066927;28;20028;-70
2022/02/11 09:27:55;;;;;;;22.52;14.40;;;;;;;9.45;72.18;100905.06;5067948;28;20029;-69
2022/02/11 09:30:21;;;;;;;24.45;15.05;;;;;;;9.55;71.23;100896.25;5067934;28;20400;-70
2022/02/11 09:32:52;;;;;;;25.13;14.85;;;;;;;9.65;71.51;100899.94;5067914;28;20380;-70
2022/02/11 09:35:19;;;;;;;26.63;14.80;;;;;;;9.74;71.90;100906.44;5067874;28;20540;-70
2022/02/11 09:37:44;;;;;;;26.27;15.65;;;;;;;9.86;70.42;100910.88;5068154;28;20103;-70
2022/02/11 09:40:13;;;;;;;25.88;14.77;;;;;;;9.88;70.36;100896.38;5067767;28;20112;-67
2022/02/11 09:42:38;;;;;;;29.00;15.55;;;;;;;10.00;70.59;100905.31;5067698;28;20134;-67
2022/02/11 09:45:06;;;;;;;25.15;14.55;;;;;;;10.10;70.52;100907.22;5067915;28;20060;-67
2022/02/11 09:47:36;;;;;;;27.23;15.23;;;;;;;10.23;69.57;100899.94;5067616;28;20036;-67
2022/02/11 09:50:03;;;;;;;24.83;14.32;;;;;;;10.33;68.99;100892.03;5064949;28;20506;-67
2022/02/11 09:52:37;;;;;;;32.50;15.50;;;;;;;10.45;68.61;100894.59;5067278;28;20085;-67
2022/02/11 09:57:46;;;;;;;30.67;16.98;;;;;;;10.71;66.77;100897.94;5066515;28;20322;-67
2022/02/11 10:00:13;;;;;;;27.85;15.63;;;;;;;10.78;66.19;100880.38;5067785;28;20442;-67
2022/02/11 10:02:54;;;;;;;29.92;17.55;;;;;;;11.09;65.19;100893.88;5067367;28;20074;-67
2022/02/11 10:05:28;;;;;;;31.33;16.38;;;;;;;11.22;64.70;100873.13;5064266;28;20036;-69
2022/02/11 10:07:56;;;;;;;26.98;15.32;;;;;;;11.59;63.82;100884.38;5065188;28;20045;-68
2022/02/11 10:13:12;;;;;;;29.75;15.93;;;;;;;12.39;60.82;100878.38;5067215;28;20101;-68
2022/02/11 10:15:43;;;;;;;26.30;15.07;;;;;;;12.86;60.18;100879.59;5066111;28;20496;-66
2022/02/11 10:18:09;;;;;;;28.88;15.68;;;;;;;13.20;57.60;100862.16;5066273;28;20107;-68
2022/02/11 10:20:42;;;;;;;25.52;15.85;;;;;;;13.60;56.14;100860.25;5062675;28;20053;-68
2022/02/11 10:23:29;;;;;;;27.15;14.82;;;;;;;13.87;55.62;100870.34;5066215;28;20024;-68
2022/02/11 10:26:15;;;;;;;29.73;15.95;;;;;;;13.85;54.89;100859.69;5066679;28;20043;-69
2022/02/11 10:28:48;;;;;;;28.92;16.05;;;;;;;13.74;55.67;100868.75;5065714;28;20036;-66
2022/02/11 10:31:30;;;;;;;33.10;17.30;;;;;;;13.65;55.18;100861.50;5065451;28;20040;-66
2022/02/11 10:34:05;;;;;;;29.40;17.08;;;;;;;13.53;55.67;100854.56;5063439;28;20504;-66
2022/02/11 10:36:32;;;;;;;32.50;16.75;;;;;;;13.49;55.22;100847.78;5066260;28;20046;-68
2022/02/11 10:39:10;;;;;;;26.35;15.90;;;;;;;13.31;56.75;100849.44;5070226;28;20067;-66
2022/02/11 10:41:49;;;;;;;32.30;17.20;;;;;;;13.33;56.25;100847.47;5067606;28;20082;-66
2022/02/11 10:44:17;;;;;;;30.35;16.63;;;;;;;13.24;56.62;100831.28;5069465;28;20658;-66
2022/02/11 10:46:47;;;;;;;25.33;16.13;;;;;;;13.44;56.14;100835.69;5067900;28;20036;-66
2022/02/11 10:49:15;;;;;;;28.35;16.38;;;;;;;13.35;56.37;100840.06;5069990;28;20475;-66
2022/02/11 10:51:43;;;;;;;29.65;16.75;;;;;;;13.35;56.76;100831.16;5069489;28;20038;-66
2022/02/11 10:54:28;;;;;;;25.55;14.18;;;;;;;13.36;56.90;100830.16;5069558;28;20021;-66
2022/02/11 10:56:57;;;;;;;33.95;15.80;;;;;;;13.33;56.59;100822.34;5069720;28;20043;-66
2022/02/11 10:59:50;;;;;;;24.63;15.07;;;;;;;13.46;56.45;100834.56;5069457;28;20511;-66
2022/02/11 11:02:20;;;;;;;26.33;14.10;;;;;;;13.32;56.48;100812.59;5064583;28;20072;-67
2022/02/11 11:04:48;;;;;;;22.40;14.82;;;;;;;13.39;56.30;100806.47;5069202;28;20036;-66
2022/02/11 11:07:18;;;;;;;25.75;13.98;;;;;;;13.42;56.51;100824.22;5068900;28;20554;-66
2022/02/11 11:09:48;;;;;;;26.35;11.98;;;;;;;13.53;56.13;100824.06;5069812;28;20506;-66
2022/02/11 11:12:15;;;;;;;25.13;13.18;;;;;;;13.39;56.34;100811.84;5066898;28;20583;-66
2022/02/11 11:14:42;;;;;;;24.85;14.05;;;;;;;13.51;56.32;100817.97;5068624;28;20032;-66
2022/02/11 11:17:08;;;;;;;27.67;13.93;;;;;;;13.53;56.50;100818.69;5069068;28;20031;-66
2022/02/11 11:19:36;;;;;;;29.65;12.48;;;;;;;13.39;56.42;100798.38;5067523;28;20127;-67
2022/02/11 11:22:16;;;;;;;26.42;12.35;;;;;;;13.43;56.96;100815.13;5069126;28;20167;-66
2022/02/11 11:24:58;;;;;;;23.05;12.50;;;;;;;13.47;57.07;100805.75;5069189;28;20037;-66
2022/02/11 11:27:53;;;;;;;24.80;12.23;;;;;;;13.41;56.84;100807.19;5069202;28;20020;-66
2022/02/11 11:30:29;;;;;;;17.90;11.45;;;;;;;13.50;56.64;100805.50;5065292;28;20056;-66
2022/02/11 11:33:04;;;;;;;21.05;11.25;;;;;;;13.55;56.61;100798.66;5066697;28;20391;-66
2022/02/11 11:35:30;;;;;;;21.30;12.02;;;;;;;13.58;56.93;100800.25;5067509;28;20032;-66
2022/02/11 11:38:15;;;;;;;20.75;11.20;;;;;;;13.53;56.58;100805.19;5068975;28;20036;-66
2022/02/11 11:41:04;;;;;;;20.25;11.23;;;;;;;13.45;56.71;100803.22;5067906;28;20822;-66
2022/02/11 11:43:45;;;;;;;19.75;11.73;;;;;;;13.52;56.59;100798.13;5068145;28;20068;-66
2022/02/11 11:46:17;;;;;;;23.73;10.82;;;;;;;13.43;57.57;100793.56;5067138;28;20507;-66
2022/02/11 11:48:59;;;;;;;24.52;12.35;;;;;;;13.51;56.82;100791.00;5067218;28;20699;-67
2022/02/11 11:51:34;;;;;;;21.25;12.27;;;;;;;13.49;57.16;100787.63;5068900;28;20425;-66
2022/02/11 11:56:55;;;;;;;21.90;11.20;;;;;;;13.43;57.61;100780.09;5068462;28;20500;-66
2022/02/11 11:59:25;;;;;;;28.33;13.07;;;;;;;13.57;57.43;100785.06;5066601;28;20040;-66
2022/02/11 12:02:00;;;;;;;20.90;11.60;;;;;;;13.58;57.35;100776.00;5067245;28;20039;-66
2022/02/11 12:04:30;;;;;;;19.38;11.13;;;;;;;13.51;57.68;100780.22;5068413;28;20120;-66
2022/02/11 12:07:02;;;;;;;25.67;12.15;;;;;;;13.49;57.59;100779.53;5068557;28;20094;-66
2022/02/11 12:09:28;;;;;;;18.75;10.82;;;;;;;13.61;57.07;100776.53;5067831;28;20047;-66
2022/02/11 12:12:00;;;;;;;17.83;8.82;;;;;;;13.82;56.34;100778.22;5068755;28;20504;-66
2022/02/11 12:14:27;;;;;;;22.02;9.60;;;;;;;13.77;56.16;100768.72;5066239;28;20051;-66
2022/02/11 12:16:54;;;;;;;17.42;8.80;;;;;;;13.87;55.84;100774.13;5067899;28;20035;-66
2022/02/11 12:19:20;;;;;;;16.08;7.60;;;;;;;13.77;56.31;100772.44;5066042;28;20052;-66
2022/02/11 12:21:45;;;;;;;17.00;8.43;;;;;;;13.83;56.06;100767.28;5066357;28;20056;-66
2022/02/11 12:29:52;;;;;;;18.13;8.18;;;;;;;13.89;55.68;100766.72;5067775;28;20046;-66
2022/02/11 12:32:22;;;;;;;17.30;8.35;;;;;;;14.03;55.06;100774.38;5064477;28;20016;-66
2022/02/11 12:34:56;;;;;;;13.52;8.15;;;;;;;14.05;55.40;100766.97;5068259;28;20028;-66
2022/02/11 12:37:23;;;;;;;20.98;8.10;;;;;;;13.92;55.75;100769.13;5067623;28;20514;-66
2022/02/11 12:40:09;;;;;;;19.80;8.32;;;;;;;13.93;55.94;100765.44;5068114;28;20037;-66
2022/02/11 12:42:37;;;;;;;14.95;7.70;;;;;;;14.09;55.18;100773.78;5067252;28;20048;-66
2022/02/11 12:45:04;;;;;;;13.45;6.90;;;;;;;14.01;55.00;100765.56;5066103;28;20032;-66
2022/02/11 12:47:32;;;;;;;21.17;7.57;;;;;;;14.00;54.99;100771.97;5067283;28;20047;-66
2022/02/11 12:50:00;;;;;;;21.00;7.75;;;;;;;13.94;54.71;100759.06;5065338;28;20395;-66
2022/02/11 12:52:28;;;;;;;14.68;7.22;;;;;;;13.90;55.67;100762.19;5067199;28;20446;-66
2022/02/11 12:55:03;;;;;;;19.48;8.23;;;;;;;13.86;55.44;100764.31;5067322;28;20036;-66
2022/02/11 12:57:30;;;;;;;12.88;7.05;;;;;;;13.77;55.88;100759.81;5066862;28;20044;-66
2022/02/11 12:59:57;;;;;;;24.90;7.82;;;;;;;13.78;55.54;100750.72;5067728;28;20137;-65
2022/02/11 13:02:30;;;;;;;15.02;7.35;;;;;;;13.77;56.00;100765.19;5065692;28;20041;-65
2022/02/11 13:05:20;;;;;;;16.15;7.15;;;;;;;13.77;55.49;100760.63;5066458;28;20436;-65
2022/02/11 13:07:47;;;;;;;17.73;8.00;;;;;;;13.72;56.09;100756.69;5067236;28;20112;-66
2022/02/11 13:10:26;;;;;;;16.50;8.07;;;;;;;13.51;56.07;100737.97;5067329;28;20523;-65
2022/02/11 13:12:54;;;;;;;18.23;7.13;;;;;;;13.69;56.35;100770.44;5067066;28;20496;-65
2022/02/11 13:15:24;;;;;;;16.17;7.20;;;;;;;13.78;56.03;100772.28;5067173;28;20028;-66
2022/02/11 13:17:49;;;;;;;17.95;8.10;;;;;;;13.82;55.64;100776.38;5066979;28;20567;-65
2022/02/11 13:20:19;;;;;;;14.73;6.50;;;;;;;13.75;55.80;100777.97;5066806;28;20051;-66
2022/02/11 13:22:47;;;;;;;13.05;5.72;;;;;;;13.76;56.09;100778.81;5066445;28;20050;-66
2022/02/11 13:25:14;;;;;;;17.13;7.53;;;;;;;13.70;56.59;100791.00;5067123;28;20032;-66
2022/02/11 13:27:46;;;;;;;22.65;10.32;;;;;;;13.74;56.20;100784.34;5066520;28;20055;-66
2022/02/11 13:30:14;;;;;;;24.50;11.35;;;;;;;13.74;55.66;100771.72;5064308;28;20040;-66
2022/02/11 13:32:40;;;;;;;16.77;8.73;;;;;;;13.82;55.67;100789.00;5066666;28;20040;-66
2022/02/11 13:35:07;;;;;;;28.85;13.68;;;;;;;13.81;56.10;100792.72;5066814;28;20032;-66
2022/02/11 13:37:39;;;;;;;67.15;30.05;;;;;;;13.91;55.52;100794.41;5066555;28;20741;-66
2022/02/11 13:40:13;;;;;;;36.35;15.95;;;;;;;13.90;55.23;100797.25;5065237;28;20388;-66
2022/02/11 13:42:39;;;;;;;21.55;9.63;;;;;;;13.91;55.30;100798.94;5064276;28;20055;-66
2022/02/11 13:45:10;;;;;;;16.40;7.60;;;;;;;13.81;55.05;100795.41;5066660;28;20033;-66
2022/02/11 13:47:36;;;;;;;15.55;6.28;;;;;;;13.71;55.36;100792.72;5066647;28;20029;-66
2022/02/11 13:50:04;;;;;;;13.90;7.00;;;;;;;13.67;55.62;100791.28;5066735;28;20025;-66
2022/02/11 13:55:13;;;;;;;33.08;15.48;;;;;;;13.55;56.84;100803.22;5066335;28;20035;-66
2022/02/11 13:57:39;;;;;;;26.40;10.15;;;;;;;13.56;56.32;100794.13;5066017;28;20036;-66
2022/02/11 14:00:24;;;;;;;17.65;9.43;;;;;;;13.59;56.46;100796.56;5066891;28;20492;-66
2022/02/11 14:02:50;;;;;;;24.38;11.23;;;;;;;13.60;56.36;100801.81;5068025;28;20039;-65
2022/02/11 14:05:15;;;;;;;29.20;14.65;;;;;;;13.68;56.42;100807.31;5066023;28;20598;-66
2022/02/11 14:07:53;;;;;;;28.55;13.07;;;;;;;13.49;57.27;100803.78;5066760;28;20025;-66
2022/02/11 14:10:19;;;;;;;24.17;12.73;;;;;;;13.43;57.42;100807.91;5066308;28;20032;-65
2022/02/11 14:12:44;;;;;;;25.52;14.07;;;;;;;13.43;57.74;100810.59;5071004;28;20016;-66
2022/02/11 14:15:10;;;;;;;32.53;15.88;;;;;;;13.49;57.03;100817.25;5070047;28;20117;-65
2022/02/11 14:17:35;;;;;;;30.52;15.63;;;;;;;13.39;57.71;100824.50;5071416;28;20115;-66
2022/02/11 14:20:02;;;;;;;30.02;13.85;;;;;;;13.28;57.87;100824.59;5070255;28;20052;-66
2022/02/11 14:22:30;;;;;;;23.55;12.52;;;;;;;13.30;58.14;100825.31;5070963;28;20539;-66
2022/02/11 14:24:56;;;;;;;26.60;12.50;;;;;;;13.21;58.45;100828.84;5071242;28;20042;-66
2022/02/11 14:27:21;;;;;;;22.13;12.82;;;;;;;13.21;58.30;100834.22;5071098;28;20110;-66
2022/02/11 14:29:47;;;;;;;30.05;14.60;;;;;;;13.20;58.27;100838.78;5071470;28;20029;-66
2022/02/11 14:32:12;;;;;;;24.40;13.57;;;;;;;13.07;58.25;100837.34;5070912;28;20020;-66
2022/02/11 14:34:38;;;;;;;25.65;13.73;;;;;;;13.05;58.72;100842.00;5069530;28;20459;-66
2022/02/11 14:37:04;;;;;;;27.77;13.60;;;;;;;12.97;58.81;100848.03;5070819;28;20446;-66
2022/02/11 14:39:29;;;;;;;25.85;13.70;;;;;;;12.90;58.92;100843.34;5069200;28;20079;-66
2022/02/11 14:41:57;;;;;;;27.52;14.13;;;;;;;12.69;59.09;100818.31;5070690;28;20441;-67
2022/02/11 14:44:31;;;;;;;28.13;15.00;;;;;;;12.79;59.60;100849.69;5070637;28;20479;-67
2022/02/11 14:46:59;;;;;;;28.15;13.25;;;;;;;12.72;59.52;100844.97;5070574;28;20028;-66
2022/02/11 14:49:24;;;;;;;23.13;13.30;;;;;;;12.72;60.34;100853.03;5070154;28;20029;-65
2022/02/11 14:51:58;;;;;;;27.73;13.93;;;;;;;12.68;59.60;100843.53;5068813;28;20039;-66
2022/02/11 14:54:24;;;;;;;29.83;16.02;;;;;;;12.83;59.27;100858.34;5070253;28;20136;-66
2022/02/11 14:56:51;;;;;;;24.85;14.05;;;;;;;12.92;59.21;100860.19;5070015;28;20119;-66
2022/02/11 14:59:18;;;;;;;24.95;11.77;;;;;;;12.86;58.71;100849.97;5068815;28;20055;-65
2022/02/11 15:01:44;;;;;;;22.15;10.02;;;;;;;13.00;57.75;100861.25;5068493;28;20024;-66
2022/02/11 15:04:10;;;;;;;20.40;10.50;;;;;;;12.79;58.46;100857.75;5068761;28;20020;-66
2022/02/11 15:06:37;;;;;;;22.63;10.00;;;;;;;12.79;58.70;100868.53;5069790;28;20678;-66
2022/02/11 15:09:04;;;;;;;20.88;9.63;;;;;;;12.60;59.37;100854.13;5069854;28;20028;-66
2022/02/11 15:11:29;;;;;;;22.90;10.40;;;;;;;12.53;59.63;100856.50;5070051;28;20032;-66
2022/02/11 15:13:55;;;;;;;21.48;10.90;;;;;;;12.56;59.74;100869.69;5068274;28;20042;-66
2022/02/11 15:16:21;;;;;;;21.83;11.20;;;;;;;12.53;59.65;100871.78;5069934;28;20039;-66
2022/02/11 15:18:47;;;;;;;28.23;11.82;;;;;;;12.57;58.44;100868.69;5070410;28;20070;-66
2022/02/11 15:21:13;;;;;;;25.33;12.38;;;;;;;12.59;57.70;100876.63;5070019;28;20119;-67
2022/02/11 15:23:39;;;;;;;22.73;11.38;;;;;;;12.48;57.11;100895.56;5067494;28;20024;-67
2022/02/11 15:26:08;;;;;;;17.90;9.73;;;;;;;12.28;56.70;100926.03;5068655;28;20047;-67
2022/02/11 15:28:38;;;;;;;20.20;8.90;;;;;;;12.15;55.76;100920.81;5069970;28;20060;-67
2022/02/11 15:31:08;;;;;;;21.42;10.00;;;;;;;12.05;55.77;100933.31;5069803;28;20025;-67